Time;durP1;ratioP1;P1;durP2;ratioP2;P2;SDS_P1;SDS_P2;PMS_P1;PMS_P2;Temp;Humidity;BMP_temperature;BMP_pressure;BME280_temperature;BME280_humidity;BME280_pressure;Samples;Min_cycle;Max_cycle;Signal;HPM_P1;HPM_P2
2022/06/20 00:01:42;;;;;;;3.47;1.90;;;;;;;23.06;nan;99701.22;4988388;28;20034;-74
2022/06/20 00:04:14;;;;;;;3.80;1.80;;;;;;;23.02;nan;99704.69;4987295;28;21229;-74
2022/06/20 00:06:40;;;;;;;3.45;1.98;;;;;;;22.92;nan;99696.47;4989816;28;20042;-74
2022/06/20 00:09:05;;;;;;;2.90;1.80;;;;;;;22.83;nan;99690.72;4988151;28;20058;-74
2022/06/20 00:11:48;;;;;;;4.40;2.40;;;;;;;22.72;nan;99678.22;4987698;28;20459;-74
2022/06/20 00:14:19;;;;;;;3.30;2.22;;;;;;;22.63;nan;99675.94;4969469;28;20046;-74
2022/06/20 00:16:45;;;;;;;3.70;2.33;;;;;;;22.54;nan;99676.63;4985493;28;20064;-74
2022/06/20 00:19:11;;;;;;;4.85;2.60;;;;;;;22.48;nan;99681.16;4987849;28;20070;-73
2022/06/20 00:21:37;;;;;;;7.40;3.25;;;;;;;22.42;nan;99682.97;4989618;28;20031;-73
2022/06/20 00:24:03;;;;;;;6.07;2.83;;;;;;;22.38;nan;99678.31;4989300;28;20551;-74
2022/06/20 00:26:29;;;;;;;7.35;3.20;;;;;;;22.34;nan;99666.44;4986027;28;20053;-74
2022/06/20 00:28:54;;;;;;;5.25;3.08;;;;;;;22.30;nan;99665.31;4990686;28;20026;-74
2022/06/20 00:31:19;;;;;;;5.97;2.60;;;;;;;22.25;nan;99672.25;4987748;28;20186;-74
2022/06/20 00:33:46;;;;;;;4.18;2.28;;;;;;;22.21;nan;99663.03;4988928;28;20468;-74
2022/06/20 00:36:12;;;;;;;4.75;2.30;;;;;;;22.17;nan;99667.28;4986752;28;20035;-74
2022/06/20 00:38:38;;;;;;;5.25;2.72;;;;;;;22.13;nan;99655.38;4987458;28;20093;-74
2022/06/20 00:41:12;;;;;;;5.85;2.67;;;;;;;22.10;nan;99650.50;4988432;28;20034;-73
2022/06/20 00:43:45;;;;;;;4.97;2.47;;;;;;;22.08;nan;99641.84;4992008;28;20226;-73
2022/06/20 00:46:14;;;;;;;3.75;2.17;;;;;;;22.06;nan;99643.97;4986590;28;20067;-73
2022/06/20 00:48:57;;;;;;;4.97;2.58;;;;;;;22.03;nan;99647.97;4987707;28;20072;-73
2022/06/20 00:51:33;;;;;;;3.53;2.05;;;;;;;21.99;nan;99656.78;4987126;28;20328;-73
2022/06/20 00:54:08;;;;;;;3.58;2.13;;;;;;;21.92;nan;99656.16;4988216;28;20038;-72
2022/06/20 00:56:53;;;;;;;4.45;2.22;;;;;;;21.87;nan;99659.59;4988344;28;20499;-73
2022/06/20 00:59:25;;;;;;;4.13;2.00;;;;;;;21.81;nan;99657.91;4986926;28;20122;-73
2022/06/20 01:01:51;;;;;;;3.83;2.30;;;;;;;21.75;nan;99651.59;4988130;28;20491;-72
2022/06/20 01:04:28;;;;;;;4.75;2.40;;;;;;;21.71;nan;99638.88;4985858;28;20035;-73
2022/06/20 01:06:55;;;;;;;5.15;2.22;;;;;;;21.68;nan;99644.78;4988052;28;20053;-73
2022/06/20 01:09:25;;;;;;;5.93;2.42;;;;;;;21.66;nan;99652.28;4990343;28;20039;-73
2022/06/20 01:11:54;;;;;;;6.20;3.03;;;;;;;21.62;nan;99660.84;4991350;28;20289;-72
2022/06/20 01:14:26;;;;;;;5.25;2.75;;;;;;;21.59;nan;99652.44;4990404;28;20562;-73
2022/06/20 01:16:54;;;;;;;5.63;3.20;;;;;;;21.53;nan;99654.25;4986808;28;20049;-73
2022/06/20 01:19:44;;;;;;;6.20;2.78;;;;;;;21.50;nan;99661.97;4990779;28;20130;-72
2022/06/20 01:22:18;;;;;;;4.68;2.70;;;;;;;21.47;nan;99700.94;4990994;28;20046;-73
2022/06/20 01:25:21;;;;;;;4.78;2.53;;;;;;;21.41;nan;99713.50;4975374;28;20042;-72
2022/06/20 01:27:48;;;;;;;4.30;2.40;;;;;;;21.35;nan;99698.28;4975385;28;20042;-73
2022/06/20 01:30:13;;;;;;;5.82;2.78;;;;;;;21.33;nan;99699.59;4990498;28;20523;-73
2022/06/20 01:32:42;;;;;;;5.07;2.55;;;;;;;21.31;nan;99718.66;4990523;28;20053;-73
2022/06/20 01:35:11;;;;;;;6.05;2.78;;;;;;;21.29;nan;99731.53;4991009;28;20555;-73
2022/06/20 01:37:41;;;;;;;4.07;2.33;;;;;;;21.24;nan;99741.38;4989972;28;20038;-73
2022/06/20 01:40:13;;;;;;;6.75;3.22;;;;;;;21.20;nan;99757.19;4990530;28;20046;-73
2022/06/20 01:42:40;;;;;;;6.13;2.90;;;;;;;21.13;nan;99762.69;4990464;28;20026;-72
2022/06/20 01:45:57;;;;;;;5.78;3.22;;;;;;;21.07;nan;99770.91;4973649;28;20041;-73
2022/06/20 01:47:51;;;;;;;4.32;2.55;;;;;;;21.01;nan;99786.13;4989206;28;20045;-73
2022/06/20 01:50:16;;;;;;;6.72;3.10;;;;;;;20.98;nan;99778.53;4989785;28;20034;-72
2022/06/20 01:52:44;;;;;;;6.82;2.90;;;;;;;20.94;nan;99778.19;4990528;28;20034;-73
2022/06/20 01:55:14;;;;;;;4.80;2.45;;;;;;;20.92;nan;99772.22;4990537;28;20030;-73
2022/06/20 01:57:42;;;;;;;9.00;2.80;;;;;;;20.89;nan;99799.59;4992327;28;20031;-73
2022/06/20 02:00:12;;;;;;;7.97;2.40;;;;;;;20.86;nan;99835.00;4990077;28;20042;-72
2022/06/20 02:02:42;;;;;;;6.78;3.15;;;;;;;20.79;nan;99872.75;4989055;28;20038;-72
2022/06/20 02:05:14;;;;;;;7.47;3.10;;;;;;;20.72;nan;99869.38;4986946;28;20525;-72
2022/06/20 02:07:41;;;;;;;7.97;2.80;;;;;;;20.68;nan;99856.63;4990997;28;20037;-73
2022/06/20 02:10:11;;;;;;;7.63;3.25;;;;;;;20.65;nan;99876.72;4989813;28;20038;-72
2022/06/20 02:12:38;;;;;;;9.00;3.15;;;;;;;20.61;nan;99883.59;4987229;28;20229;-73
2022/06/20 02:15:04;;;;;;;8.80;2.47;;;;;;;20.57;nan;99869.84;4989227;28;20031;-73
2022/06/20 02:17:39;;;;;;;7.25;2.67;;;;;;;20.57;nan;99872.53;4975640;28;20041;-73
2022/06/20 02:20:08;;;;;;;6.18;2.50;;;;;;;20.54;nan;99881.00;4989612;28;20117;-72
2022/06/20 02:22:35;;;;;;;6.43;2.00;;;;;;;20.52;nan;99875.06;4987740;28;20030;-73
2022/06/20 02:25:08;;;;;;;6.72;2.15;;;;;;;20.49;nan;99888.94;4990727;28;20041;-73
2022/06/20 02:27:40;;;;;;;6.45;2.63;;;;;;;20.47;nan;99892.91;4990715;28;20078;-73
2022/06/20 02:30:07;;;;;;;6.85;2.30;;;;;;;20.47;nan;99871.44;4989530;28;20034;-73
2022/06/20 02:32:37;;;;;;;7.43;2.38;;;;;;;20.48;nan;99871.19;4988518;28;20043;-72
2022/06/20 02:35:05;;;;;;;6.73;2.27;;;;;;;20.51;nan;99873.41;4990315;28;20034;-72
2022/06/20 02:37:30;;;;;;;5.68;2.25;;;;;;;20.55;nan;99876.47;4989077;28;20304;-72
2022/06/20 02:40:01;;;;;;;4.03;1.60;;;;;;;20.57;nan;99896.69;4990230;28;20038;-73
2022/06/20 02:42:32;;;;;;;;;;;;;;;20.56;nan;99880.81;4989253;28;20399;-72
2022/06/20 02:44:58;;;;;;;4.70;1.92;;;;;;;20.59;nan;99864.22;4989979;28;19925;-73
2022/06/20 02:47:25;;;;;;;3.58;1.70;;;;;;;20.62;nan;99850.34;4976633;28;20278;-72
2022/06/20 02:49:54;;;;;;;6.15;2.30;;;;;;;20.61;nan;99864.81;4983655;28;20030;-72
2022/06/20 02:52:25;;;;;;;4.70;2.17;;;;;;;20.64;nan;99861.66;4988489;28;20054;-72
2022/06/20 02:54:51;;;;;;;5.25;2.30;;;;;;;20.65;nan;99876.72;4989469;28;20088;-72
2022/06/20 02:57:34;;;;;;;5.10;2.05;;;;;;;20.63;nan;99851.97;4988529;28;20121;-72
2022/06/20 03:00:02;;;;;;;5.68;2.10;;;;;;;20.65;nan;99851.72;4989877;28;20030;-73
2022/06/20 03:02:30;;;;;;;6.20;2.45;;;;;;;20.60;nan;99863.19;4971007;28;20058;-73
2022/06/20 03:04:56;;;;;;;6.57;2.40;;;;;;;20.56;nan;99843.19;4990245;28;20034;-73
2022/06/20 03:07:26;;;;;;;5.22;2.00;;;;;;;20.53;nan;99849.03;4989694;28;20034;-72
2022/06/20 03:10:07;;;;;;;5.22;2.22;;;;;;;20.50;nan;99836.88;4989648;28;20041;-73
2022/06/20 03:12:32;;;;;;;7.68;2.63;;;;;;;20.48;nan;99814.00;4989230;28;20049;-72
2022/06/20 03:15:00;;;;;;;4.63;2.10;;;;;;;20.48;nan;99822.88;4973158;28;20322;-73
2022/06/20 03:17:25;;;;;;;5.68;2.45;;;;;;;20.46;nan;99829.53;4989429;28;20086;-72
2022/06/20 03:20:04;;;;;;;4.35;1.80;;;;;;;20.48;nan;99806.75;4971804;28;20038;-72
2022/06/20 03:22:38;;;;;;;5.20;1.60;;;;;;;20.48;nan;99820.19;4988611;28;20383;-72
2022/06/20 03:25:06;;;;;;;3.85;2.08;;;;;;;20.47;nan;99823.09;4989217;28;20405;-72
2022/06/20 03:27:34;;;;;;;4.72;1.98;;;;;;;20.45;nan;99815.28;4988770;28;20064;-72
2022/06/20 03:30:18;;;;;;;5.65;2.08;;;;;;;20.44;nan;99831.63;4987827;28;20244;-73
2022/06/20 03:32:44;;;;;;;4.40;2.22;;;;;;;20.47;nan;99848.06;4988076;28;20454;-73
2022/06/20 03:35:09;;;;;;;4.43;1.90;;;;;;;20.46;nan;99869.81;4988876;28;20129;-72
2022/06/20 03:37:36;;;;;;;5.78;2.15;;;;;;;20.48;nan;99887.31;4989405;28;20173;-73
2022/06/20 03:40:02;;;;;;;5.45;2.17;;;;;;;20.50;nan;99908.59;4987958;28;20447;-72
2022/06/20 03:42:28;;;;;;;5.70;2.00;;;;;;;20.54;nan;99912.41;4988866;28;20095;-72
2022/06/20 03:44:56;;;;;;;5.05;2.15;;;;;;;20.49;nan;99901.56;4994345;28;20431;-72
2022/06/20 03:47:27;;;;;;;5.80;2.10;;;;;;;20.45;nan;99908.44;4988759;28;20039;-73
2022/06/20 03:50:02;;;;;;;6.33;2.40;;;;;;;20.40;nan;99895.69;4989736;28;20066;-73
2022/06/20 03:52:34;;;;;;;4.45;1.95;;;;;;;20.33;nan;99897.69;4987581;28;20583;-73
2022/06/20 03:55:07;;;;;;;5.18;1.98;;;;;;;20.28;nan;99887.63;4978261;28;20039;-73
2022/06/20 03:58:07;;;;;;;3.50;1.98;;;;;;;20.20;nan;99885.28;4988871;28;20091;-72
2022/06/20 04:00:48;;;;;;;3.65;1.83;;;;;;;20.19;nan;99886.34;4973429;28;20077;-72
2022/06/20 04:03:23;;;;;;;5.07;1.80;;;;;;;20.12;nan;99870.34;4988346;28;20034;-72
2022/06/20 04:05:56;;;;;;;4.88;2.13;;;;;;;20.11;nan;99870.56;4989640;28;20041;-72
2022/06/20 04:11:26;;;;;;;4.63;1.70;;;;;;;20.01;nan;99862.28;4987412;28;20097;-72
2022/06/20 04:14:03;;;;;;;6.82;1.90;;;;;;;20.01;nan;99840.81;4987336;28;20176;-72
2022/06/20 04:16:37;;;;;;;5.05;2.00;;;;;;;20.07;nan;99837.19;4985220;28;20577;-72
2022/06/20 04:19:22;;;;;;;3.65;1.90;;;;;;;20.09;nan;99824.34;4989456;28;20045;-73
2022/06/20 04:21:58;;;;;;;4.65;2.15;;;;;;;20.23;nan;99811.53;4986297;28;20096;-72
2022/06/20 04:24:23;;;;;;;4.50;1.70;;;;;;;20.33;nan;99803.69;4982225;28;20103;-73
2022/06/20 04:27:16;;;;;;;5.07;2.10;;;;;;;20.47;nan;99799.72;4987766;28;20497;-73
2022/06/20 04:29:48;;;;;;;4.22;1.88;;;;;;;20.59;nan;99813.19;4984989;28;20088;-72
2022/06/20 04:32:32;;;;;;;4.60;1.95;;;;;;;20.69;nan;99816.09;4987195;28;20038;-72
2022/06/20 04:35:02;;;;;;;6.65;2.00;;;;;;;20.71;nan;99810.47;4982765;28;20387;-73
2022/06/20 04:37:41;;;;;;;5.05;2.20;;;;;;;20.72;nan;99817.50;4987027;28;20042;-73
2022/06/20 04:40:33;;;;;;;5.88;2.15;;;;;;;20.72;nan;99815.63;4975050;28;20034;-73
2022/06/20 04:43:01;;;;;;;;;;;;;;;20.78;nan;99833.50;4991647;28;20031;-72
2022/06/20 04:45:56;;;;;;;6.45;1.70;;;;;;;20.86;nan;99853.00;4971586;28;19976;-73
2022/06/20 04:48:24;;;;;;;4.53;1.65;;;;;;;20.96;nan;99845.97;4988615;28;20043;-72
2022/06/20 04:50:59;;;;;;;5.28;1.80;;;;;;;21.03;nan;99855.78;4992542;28;20044;-72
2022/06/20 04:53:28;;;;;;;5.07;2.13;;;;;;;21.09;nan;99861.00;4991574;28;20034;-73
2022/06/20 04:55:57;;;;;;;5.05;1.90;;;;;;;21.11;nan;99858.09;4990544;28;20034;-73
2022/06/20 04:58:27;;;;;;;3.22;1.50;;;;;;;21.17;nan;99881.34;4989043;28;20395;-72
2022/06/20 05:00:53;;;;;;;2.97;1.65;;;;;;;21.25;nan;99880.97;4991894;28;20398;-72
2022/06/20 05:03:36;;;;;;;4.60;1.77;;;;;;;21.29;nan;99859.81;4991772;28;20069;-73
2022/06/20 05:06:06;;;;;;;5.63;1.92;;;;;;;21.31;nan;99852.28;4989518;28;20117;-73
2022/06/20 05:08:35;;;;;;;5.65;2.10;;;;;;;21.41;nan;99888.31;4990773;28;20037;-72
2022/06/20 05:11:22;;;;;;;5.32;1.75;;;;;;;21.53;nan;99895.53;4989576;28;20035;-72
2022/06/20 05:14:07;;;;;;;4.55;1.83;;;;;;;21.60;nan;99866.63;4985653;28;20080;-73
2022/06/20 05:16:37;;;;;;;3.58;1.90;;;;;;;21.70;nan;99876.75;4990309;28;20038;-73
2022/06/20 05:19:13;;;;;;;3.17;1.80;;;;;;;21.74;nan;99883.28;4990180;28;20075;-73
2022/06/20 05:21:45;;;;;;;4.00;1.40;;;;;;;21.75;nan;99877.66;4975546;28;20034;-73
2022/06/20 05:24:14;;;;;;;3.33;1.40;;;;;;;21.70;nan;99892.91;4992596;28;20190;-73
2022/06/20 05:26:43;;;;;;;2.60;1.50;;;;;;;21.72;nan;99926.59;4994610;28;20442;-73
2022/06/20 05:29:33;;;;;;;4.03;1.60;;;;;;;21.72;nan;99934.66;4993367;28;20030;-73
2022/06/20 05:32:06;;;;;;;2.97;1.67;;;;;;;21.65;nan;99920.53;5009166;28;20038;-73
2022/06/20 05:34:40;;;;;;;4.18;1.77;;;;;;;21.65;nan;99938.56;5002458;28;20038;-73
2022/06/20 05:37:14;;;;;;;3.63;1.50;;;;;;;21.71;nan;99967.97;4981590;28;20117;-73
2022/06/20 05:39:48;;;;;;;4.25;1.73;;;;;;;21.80;nan;99977.31;4989897;28;20034;-73
2022/06/20 05:42:16;;;;;;;4.25;1.95;;;;;;;21.87;nan;99977.19;4990908;28;20435;-73
2022/06/20 05:44:42;;;;;;;5.80;1.77;;;;;;;21.93;nan;99991.56;4989788;28;20034;-73
2022/06/20 05:47:21;;;;;;;6.00;2.25;;;;;;;21.95;nan;99992.13;4988838;28;20045;-73
2022/06/20 05:49:51;;;;;;;4.78;2.20;;;;;;;21.92;nan;99992.63;4990043;28;20404;-73
2022/06/20 05:52:24;;;;;;;4.05;2.00;;;;;;;22.13;nan;100005.41;4990687;28;20053;-74
2022/06/20 05:55:14;;;;;;;5.13;2.40;;;;;;;22.21;nan;100001.53;4972500;28;20506;-72
2022/06/20 05:57:41;;;;;;;4.53;1.60;;;;;;;22.37;nan;100006.16;4984229;28;20046;-72
2022/06/20 06:00:11;;;;;;;4.47;1.70;;;;;;;22.44;nan;100006.81;4992481;28;20034;-72
2022/06/20 06:02:44;;;;;;;4.38;1.88;;;;;;;22.35;nan;100029.00;4975081;28;20050;-72
2022/06/20 06:05:19;;;;;;;5.90;1.70;;;;;;;22.32;nan;100026.81;4993176;28;20031;-72
2022/06/20 06:08:03;;;;;;;3.22;1.75;;;;;;;22.31;nan;100028.69;4975870;28;20300;-72
2022/06/20 06:10:45;;;;;;;4.22;1.75;;;;;;;22.39;nan;100014.00;4993887;28;20038;-71
2022/06/20 06:13:39;;;;;;;2.70;1.30;;;;;;;22.54;nan;100002.66;4993701;28;20040;-72
2022/06/20 06:19:05;;;;;;;6.03;1.70;;;;;;;22.54;nan;100070.03;4992399;28;20550;-72
2022/06/20 06:21:33;;;;;;;7.10;1.90;;;;;;;22.32;nan;100042.97;4992368;28;20165;-72
2022/06/20 06:23:59;;;;;;;4.90;1.67;;;;;;;22.23;nan;100056.78;4992386;28;20380;-71
2022/06/20 06:26:24;;;;;;;4.75;1.88;;;;;;;22.09;nan;100073.44;4991877;28;20057;-72
2022/06/20 06:28:52;;;;;;;6.65;1.77;;;;;;;21.94;nan;100055.94;4999416;28;20495;-72
2022/06/20 06:31:22;;;;;;;2.63;1.48;;;;;;;21.97;nan;100047.38;4992287;28;20026;-72
2022/06/20 06:33:54;;;;;;;2.70;1.27;;;;;;;22.24;nan;100065.72;4990797;28;20042;-72
2022/06/20 06:36:39;;;;;;;3.53;1.67;;;;;;;22.24;nan;100066.53;4991923;28;20184;-72
2022/06/20 06:39:14;;;;;;;5.00;1.70;;;;;;;22.22;nan;100062.44;4974141;28;20030;-72
2022/06/20 06:41:48;;;;;;;4.55;1.80;;;;;;;22.29;nan;100054.22;4992151;28;20034;-72
2022/06/20 06:44:18;;;;;;;4.07;1.65;;;;;;;22.42;nan;100038.56;5005110;28;20411;-72
2022/06/20 06:46:48;;;;;;;3.60;1.33;;;;;;;22.51;nan;100040.88;5011813;28;20487;-71
2022/06/20 06:49:19;;;;;;;2.47;1.10;;;;;;;22.56;nan;100047.16;4992406;28;20065;-71
2022/06/20 06:51:59;;;;;;;;;;;;;;;22.70;nan;100042.28;4991893;28;20038;-73
2022/06/20 06:54:42;;;;;;;4.50;1.67;;;;;;;22.82;nan;100036.81;4991132;28;19925;-74
2022/06/20 06:57:17;;;;;;;4.43;1.83;;;;;;;22.79;nan;100037.31;4991072;28;20081;-73
2022/06/20 06:59:45;;;;;;;3.25;1.52;;;;;;;22.81;nan;100043.25;4974230;28;20035;-71
2022/06/20 07:02:16;;;;;;;3.72;1.90;;;;;;;22.77;nan;100052.91;4990148;28;20233;-72
2022/06/20 07:04:55;;;;;;;6.20;1.75;;;;;;;22.61;nan;100073.38;4991556;28;20030;-72
2022/06/20 07:07:39;;;;;;;2.90;1.33;;;;;;;22.44;nan;100062.56;4991589;28;20042;-72
2022/06/20 07:10:07;;;;;;;4.55;1.88;;;;;;;22.56;nan;100087.59;4990058;28;20034;-72
2022/06/20 07:12:38;;;;;;;3.28;1.70;;;;;;;22.82;nan;100067.28;4984171;28;20030;-72
2022/06/20 07:15:10;;;;;;;3.10;1.42;;;;;;;22.95;nan;100063.44;4991405;28;20372;-72
2022/06/20 07:17:58;;;;;;;3.15;1.30;;;;;;;23.23;nan;100064.47;4991571;28;20069;-72
2022/06/20 07:20:28;;;;;;;3.45;1.58;;;;;;;23.62;nan;100054.50;4990771;28;20380;-72
2022/06/20 07:22:53;;;;;;;2.92;1.27;;;;;;;24.26;nan;100063.94;4990562;28;20026;-72
2022/06/20 07:25:26;;;;;;;2.53;1.00;;;;;;;25.22;nan;100074.06;4991096;28;20034;-72
2022/06/20 07:28:03;;;;;;;2.88;1.20;;;;;;;25.97;nan;100066.63;4999338;28;20494;-73
2022/06/20 07:30:34;;;;;;;4.85;1.65;;;;;;;25.92;nan;100049.56;5002658;28;20049;-72
2022/06/20 07:33:17;;;;;;;2.30;1.10;;;;;;;26.08;nan;100017.88;4973611;28;20053;-73
2022/06/20 07:35:46;;;;;;;3.28;1.30;;;;;;;26.38;nan;99990.03;4991168;28;20042;-73
2022/06/20 07:38:23;;;;;;;3.10;1.35;;;;;;;26.75;nan;100008.00;5006042;28;20037;-73
2022/06/20 07:41:00;;;;;;;2.53;1.20;;;;;;;27.27;nan;100010.38;5001368;28;20034;-72
2022/06/20 07:43:39;;;;;;;4.43;1.65;;;;;;;27.28;nan;100014.72;4998280;28;20033;-73
2022/06/20 07:46:23;;;;;;;3.13;1.00;;;;;;;27.09;nan;100038.06;5000270;28;20391;-72
2022/06/20 07:48:52;;;;;;;4.05;1.25;;;;;;;26.78;nan;100064.41;4991496;28;20041;-72
2022/06/20 07:51:19;;;;;;;4.75;1.70;;;;;;;26.50;nan;100071.94;4990951;28;20094;-72
2022/06/20 07:53:58;;;;;;;4.15;1.15;;;;;;;26.35;nan;100082.75;4990717;28;20042;-72
2022/06/20 07:56:40;;;;;;;2.25;1.10;;;;;;;25.63;nan;100080.53;4990413;28;20653;-72
2022/06/20 07:59:11;;;;;;;4.65;1.77;;;;;;;24.99;nan;100048.97;4990687;28;20034;-72
2022/06/20 08:01:47;;;;;;;3.25;1.30;;;;;;;24.72;nan;100061.72;4990602;28;20515;-72
2022/06/20 08:04:16;;;;;;;4.85;1.83;;;;;;;24.44;nan;100060.09;4990005;28;20045;-72
2022/06/20 08:06:52;;;;;;;4.78;1.45;;;;;;;24.43;nan;100058.44;4990922;28;20117;-72
2022/06/20 08:09:47;;;;;;;3.10;1.52;;;;;;;23.96;nan;100022.00;4984238;28;20387;-72
2022/06/20 08:12:28;;;;;;;3.65;1.60;;;;;;;23.27;nan;99985.50;4970953;28;20539;-72
2022/06/20 08:14:56;;;;;;;2.63;1.38;;;;;;;22.94;nan;100007.09;4988318;28;20038;-72
2022/06/20 08:17:23;;;;;;;3.55;1.60;;;;;;;23.19;nan;100018.28;4990244;28;20410;-72
2022/06/20 08:19:49;;;;;;;2.65;1.33;;;;;;;23.50;nan;100024.09;4990730;28;20034;-72
2022/06/20 08:22:55;;;;;;;2.72;1.40;;;;;;;24.00;nan;100015.03;4989345;28;20065;-73
2022/06/20 08:25:49;;;;;;;3.42;1.60;;;;;;;24.31;nan;99997.28;4990208;28;20048;-72
2022/06/20 08:28:19;;;;;;;4.65;2.10;;;;;;;24.61;nan;99997.81;4996895;28;20522;-72
2022/06/20 08:30:57;;;;;;;4.45;1.60;;;;;;;24.98;nan;100017.59;5010160;28;20036;-74
2022/06/20 08:33:38;;;;;;;4.28;1.40;;;;;;;25.42;nan;100020.03;4994516;28;20133;-71
2022/06/20 08:36:23;;;;;;;5.30;1.30;;;;;;;26.01;nan;100037.94;4990368;28;20030;-71
2022/06/20 08:39:03;;;;;;;4.38;1.67;;;;;;;26.27;nan;100036.13;4990107;28;20117;-72
2022/06/20 08:41:56;;;;;;;3.07;1.53;;;;;;;26.39;nan;100035.06;4990548;28;20030;-74
2022/06/20 08:44:24;;;;;;;3.00;1.42;;;;;;;26.42;nan;100040.75;4987144;28;20041;-72
2022/06/20 08:47:06;;;;;;;2.53;1.27;;;;;;;26.82;nan;100038.38;5008435;28;20061;-72
2022/06/20 08:49:50;;;;;;;2.67;1.30;;;;;;;27.79;nan;100051.75;4990387;28;20453;-71
2022/06/20 08:52:53;;;;;;;4.13;1.40;;;;;;;28.59;nan;100065.25;4988154;28;20034;-74
2022/06/20 08:55:53;;;;;;;5.63;2.08;;;;;;;28.26;nan;100066.78;4976306;28;20034;-72
2022/06/20 08:58:31;;;;;;;3.20;1.60;;;;;;;28.24;nan;100088.00;4976225;28;20057;-72
2022/06/20 09:01:03;;;;;;;3.47;1.52;;;;;;;28.30;nan;100088.81;4990627;28;20278;-72
2022/06/20 09:04:03;;;;;;;4.05;1.40;;;;;;;28.00;nan;100079.69;4990300;28;20047;-72
2022/06/20 09:06:49;;;;;;;2.38;1.10;;;;;;;28.32;nan;100078.47;4990105;28;20089;-72
2022/06/20 09:09:20;;;;;;;3.25;1.40;;;;;;;28.89;nan;100095.22;4990996;28;20081;-72
2022/06/20 09:12:09;;;;;;;4.85;1.88;;;;;;;28.67;nan;100098.38;4990763;28;20092;-72
2022/06/20 09:14:56;;;;;;;4.38;1.77;;;;;;;30.28;nan;100103.63;4989869;28;20030;-73
2022/06/20 09:17:42;;;;;;;4.10;1.55;;;;;;;31.61;nan;100134.31;4970719;28;20129;-74
2022/06/20 09:20:42;;;;;;;5.45;2.00;;;;;;;32.43;nan;100172.91;4973792;28;20372;-71
2022/06/20 09:23:21;;;;;;;5.60;2.33;;;;;;;30.11;nan;100188.63;4975050;28;20042;-72
2022/06/20 09:25:54;;;;;;;6.50;2.38;;;;;;;29.19;nan;100189.50;4988378;28;20443;-72
2022/06/20 09:28:38;;;;;;;7.00;2.10;;;;;;;29.79;nan;100197.44;4992854;28;20073;-72
2022/06/20 09:31:35;;;;;;;5.38;2.30;;;;;;;30.31;nan;100211.34;4992469;28;20411;-75
2022/06/20 09:34:50;;;;;;;6.57;1.98;;;;;;;29.37;nan;100217.97;4986761;28;20027;-72
2022/06/20 09:37:28;;;;;;;5.22;2.08;;;;;;;28.65;nan;100226.56;4999462;28;20041;-71
2022/06/20 09:40:27;;;;;;;3.85;1.80;;;;;;;28.34;nan;100236.69;5012294;28;20454;-72
2022/06/20 09:43:17;;;;;;;9.10;2.75;;;;;;;27.57;nan;100238.72;4997744;28;20473;-71
2022/06/20 09:45:57;;;;;;;5.90;2.00;;;;;;;26.90;nan;100244.00;4992355;28;20286;-73
2022/06/20 09:48:35;;;;;;;4.78;1.95;;;;;;;26.75;nan;100238.56;4987574;28;20053;-71
2022/06/20 09:51:32;;;;;;;4.93;2.30;;;;;;;26.25;nan;100238.03;4992212;28;20038;-72
2022/06/20 09:54:14;;;;;;;5.68;2.10;;;;;;;25.58;nan;100242.16;4991768;28;20026;-72
2022/06/20 09:56:57;;;;;;;5.85;1.83;;;;;;;25.30;nan;100251.38;4991788;28;20043;-71
2022/06/20 09:59:51;;;;;;;3.90;1.77;;;;;;;24.86;nan;100240.59;4992087;28;20569;-71
2022/06/20 10:02:25;;;;;;;4.43;2.00;;;;;;;25.25;nan;100233.19;4990903;28;20061;-72
2022/06/20 10:05:23;;;;;;;3.60;1.42;;;;;;;26.25;nan;100221.78;4992423;28;20050;-72
2022/06/20 10:07:56;;;;;;;4.25;1.38;;;;;;;27.64;nan;100222.94;4991588;28;20243;-72
2022/06/20 10:10:45;;;;;;;3.50;1.30;;;;;;;28.22;nan;100225.31;4987735;28;20046;-72
2022/06/20 10:13:54;;;;;;;3.25;1.50;;;;;;;29.31;nan;100228.06;4991359;28;20270;-71
2022/06/20 10:16:29;;;;;;;3.15;1.10;;;;;;;30.22;nan;100230.22;4913511;28;20036;-72
2022/06/20 10:19:08;;;;;;;4.45;1.48;;;;;;;29.71;nan;100236.22;4966907;28;20027;-72
2022/06/20 10:22:09;;;;;;;3.28;1.50;;;;;;;28.50;nan;100246.44;4971671;28;20039;-72
2022/06/20 10:24:46;;;;;;;;;;;;;;;27.67;nan;100244.97;4980739;28;20535;-71
2022/06/20 10:27:35;;;;;;;3.88;1.63;;;;;;;26.92;nan;100251.91;4980099;28;19925;-71
2022/06/20 10:30:04;;;;;;;3.70;1.60;;;;;;;26.25;nan;100251.59;4993528;28;20077;-72
2022/06/20 10:32:42;;;;;;;2.92;1.50;;;;;;;25.81;nan;100258.06;4990374;28;20043;-73
2022/06/20 10:35:10;;;;;;;3.65;1.63;;;;;;;25.61;nan;100255.16;4991255;28;20022;-72
2022/06/20 10:37:58;;;;;;;2.35;1.40;;;;;;;25.45;nan;100256.91;4992272;28;20104;-72
2022/06/20 10:40:38;;;;;;;2.33;1.30;;;;;;;25.42;nan;100263.66;4982842;28;20100;-72
2022/06/20 10:43:08;;;;;;;4.03;1.30;;;;;;;25.36;nan;100264.72;4994414;28;20105;-71
2022/06/20 10:45:50;;;;;;;2.13;0.80;;;;;;;25.70;nan;100272.59;4989398;28;20129;-71
2022/06/20 10:48:50;;;;;;;2.65;1.40;;;;;;;26.20;nan;100265.94;4990325;28;20041;-71
2022/06/20 10:51:56;;;;;;;2.88;1.15;;;;;;;26.81;nan;100262.69;4990458;28;20311;-72
2022/06/20 10:54:31;;;;;;;1.98;1.08;;;;;;;27.42;nan;100253.91;4983254;28;20057;-72
2022/06/20 10:57:21;;;;;;;2.50;1.17;;;;;;;27.54;nan;100256.38;4990654;28;20045;-71
2022/06/20 10:59:53;;;;;;;1.85;0.85;;;;;;;27.50;nan;100247.94;4986880;28;20125;-72
2022/06/20 11:02:28;;;;;;;2.03;0.90;;;;;;;27.33;nan;100239.25;4984092;28;20459;-72
2022/06/20 11:05:22;;;;;;;1.13;0.90;;;;;;;26.78;nan;100233.41;4967151;28;20027;-72
2022/06/20 11:08:01;;;;;;;1.90;1.00;;;;;;;26.19;nan;100231.75;4985159;28;20045;-72
2022/06/20 11:10:40;;;;;;;1.42;0.90;;;;;;;25.59;nan;100233.75;4989980;28;20049;-71
2022/06/20 11:13:11;;;;;;;1.75;0.90;;;;;;;25.29;nan;100238.91;5000639;28;20045;-71
2022/06/20 11:15:49;;;;;;;1.35;0.90;;;;;;;25.14;nan;100236.84;4997090;28;20061;-72
2022/06/20 11:18:27;;;;;;;2.35;1.00;;;;;;;25.25;nan;100243.22;4989596;28;20118;-73
2022/06/20 11:21:05;;;;;;;1.17;0.60;;;;;;;25.62;nan;100244.09;4990070;28;20049;-72
2022/06/20 11:23:39;;;;;;;1.67;1.00;;;;;;;25.41;nan;100263.94;4989125;28;20205;-71
2022/06/20 11:26:13;;;;;;;1.10;0.80;;;;;;;24.69;nan;100295.56;4991631;28;20076;-71
2022/06/20 11:28:57;;;;;;;2.25;0.88;;;;;;;24.36;nan;100291.88;4983760;28;20034;-72
2022/06/20 11:31:41;;;;;;;2.65;0.70;;;;;;;24.38;nan;100300.56;4987831;28;20041;-74
2022/06/20 11:34:34;;;;;;;0.90;0.68;;;;;;;24.52;nan;100302.91;4990692;28;20050;-71
2022/06/20 11:37:40;;;;;;;2.17;0.77;;;;;;;24.74;nan;100324.56;4990407;28;20048;-71
2022/06/20 11:40:31;;;;;;;1.08;0.80;;;;;;;24.68;nan;100325.56;4984335;28;20039;-71
2022/06/20 11:43:24;;;;;;;1.10;0.80;;;;;;;24.58;nan;100329.78;4992424;28;20034;-74
2022/06/20 11:46:08;;;;;;;1.08;0.80;;;;;;;24.50;nan;100335.63;4989790;28;20033;-71
2022/06/20 11:48:59;;;;;;;1.90;0.90;;;;;;;24.20;nan;100343.25;4983889;28;20078;-71
2022/06/20 11:51:37;;;;;;;1.40;1.00;;;;;;;24.47;nan;100341.50;4969292;28;20411;-71
2022/06/20 11:54:39;;;;;;;1.00;0.70;;;;;;;24.91;nan;100352.38;4989330;28;20117;-71
2022/06/20 11:57:39;;;;;;;2.55;1.00;;;;;;;24.52;nan;100352.38;4997702;28;20041;-71
2022/06/20 12:00:19;;;;;;;2.75;0.90;;;;;;;24.16;nan;100356.41;4990174;28;20038;-72
2022/06/20 12:03:12;;;;;;;2.25;1.10;;;;;;;23.67;nan;100358.81;5007455;28;20029;-73
2022/06/20 12:05:44;;;;;;;1.25;1.00;;;;;;;23.17;nan;100372.94;4984757;28;20030;-72
2022/06/20 12:08:38;;;;;;;1.58;1.08;;;;;;;22.71;nan;100380.03;4990254;28;20038;-71
2022/06/20 12:11:38;;;;;;;2.47;1.30;;;;;;;22.27;nan;100381.19;4989086;28;20031;-71
2022/06/20 12:14:42;;;;;;;2.87;1.10;;;;;;;21.92;nan;100380.28;4996820;28;20369;-71
2022/06/20 12:17:23;;;;;;;1.75;1.30;;;;;;;21.79;nan;100390.19;4950882;28;20054;-71
2022/06/20 12:25:50;;;;;;;1.73;1.13;;;;;;;22.25;nan;100385.16;4989562;28;20041;-71
2022/06/20 12:28:20;;;;;;;2.72;1.30;;;;;;;22.48;nan;100389.75;4996337;28;20026;-71
2022/06/20 12:30:56;;;;;;;1.35;0.90;;;;;;;22.93;nan;100382.91;4996729;28;20079;-71
2022/06/20 12:33:22;;;;;;;2.72;1.35;;;;;;;23.13;nan;100379.88;4991127;28;20253;-72
2022/06/20 12:35:56;;;;;;;1.80;1.00;;;;;;;23.42;nan;100378.03;5001363;28;20418;-72
2022/06/20 12:38:30;;;;;;;2.38;0.90;;;;;;;24.38;nan;100364.56;4992550;28;20052;-72
2022/06/20 12:41:03;;;;;;;2.15;1.25;;;;;;;25.00;nan;100369.81;4989187;28;20054;-72
2022/06/20 12:43:54;;;;;;;1.23;1.02;;;;;;;25.10;nan;100374.53;4991523;28;20041;-72